sensor_id;sensor_type;location;lat;lon;timestamp;temperature;humidity
27162;DHT22;54464;50.558;9.704;2022-10-31T00:00:42;14.50;99.90
27162;DHT22;54464;50.558;9.704;2022-10-31T00:03:08;14.50;99.90
27162;DHT22;54464;50.558;9.704;2022-10-31T00:05:34;14.50;99.90
27162;DHT22;54464;50.558;9.704;2022-10-31T00:07:59;14.50;99.90
27162;DHT22;54464;50.558;9.704;2022-10-31T00:10:25;14.40;99.90
27162;DHT22;54464;50.558;9.704;2022-10-31T00:12:51;14.40;99.90
27162;DHT22;54464;50.558;9.704;2022-10-31T00:15:17;14.40;99.90
27162;DHT22;54464;50.558;9.704;2022-10-31T00:17:42;14.30;99.90
27162;DHT22;54464;50.558;9.704;2022-10-31T00:20:08;14.30;99.90
27162;DHT22;54464;50.558;9.704;2022-10-31T00:22:34;14.30;99.90
27162;DHT22;54464;50.558;9.704;2022-10-31T00:25:00;14.20;99.90
27162;DHT22;54464;50.558;9.704;2022-10-31T00:27:25;14.20;99.90
27162;DHT22;54464;50.558;9.704;2022-10-31T00:29:51;14.10;99.90
27162;DHT22;54464;50.558;9.704;2022-10-31T00:32:16;14.10;99.90
27162;DHT22;54464;50.558;9.704;2022-10-31T00:34:42;14.00;99.90
27162;DHT22;54464;50.558;9.704;2022-10-31T00:37:08;13.90;99.90
27162;DHT22;54464;50.558;9.704;2022-10-31T00:39:33;13.80;99.90
27162;DHT22;54464;50.558;9.704;2022-10-31T00:41:59;13.80;99.90
27162;DHT22;54464;50.558;9.704;2022-10-31T00:44:25;13.80;99.90
27162;DHT22;54464;50.558;9.704;2022-10-31T00:46:51;13.80;99.90
27162;DHT22;54464;50.558;9.704;2022-10-31T00:49:16;13.70;99.90
27162;DHT22;54464;50.558;9.704;2022-10-31T00:51:42;13.70;99.90
27162;DHT22;54464;50.558;9.704;2022-10-31T00:54:08;13.70;99.90
27162;DHT22;54464;50.558;9.704;2022-10-31T00:56:33;13.70;99.90
27162;DHT22;54464;50.558;9.704;2022-10-31T00:58:59;13.60;99.90
27162;DHT22;54464;50.558;9.704;2022-10-31T01:01:24;13.60;99.90
27162;DHT22;54464;50.558;9.704;2022-10-31T01:03:50;13.60;99.90
27162;DHT22;54464;50.558;9.704;2022-10-31T01:06:16;13.60;99.90
27162;DHT22;54464;50.558;9.704;2022-10-31T01:08:42;13.60;99.90
27162;DHT22;54464;50.558;9.704;2022-10-31T01:11:14;13.50;99.90
27162;DHT22;54464;50.558;9.704;2022-10-31T01:13:40;13.50;99.90
27162;DHT22;54464;50.558;9.704;2022-10-31T01:16:08;13.40;99.90
27162;DHT22;54464;50.558;9.704;2022-10-31T01:18:35;13.40;99.90
27162;DHT22;54464;50.558;9.704;2022-10-31T01:21:09;13.40;99.90
27162;DHT22;54464;50.558;9.704;2022-10-31T01:23:36;13.30;99.90
27162;DHT22;54464;50.558;9.704;2022-10-31T01:26:10;13.30;99.90
27162;DHT22;54464;50.558;9.704;2022-10-31T01:28:38;13.20;99.90
27162;DHT22;54464;50.558;9.704;2022-10-31T01:31:06;13.20;99.90
27162;DHT22;54464;50.558;9.704;2022-10-31T01:33:32;13.20;99.90
27162;DHT22;54464;50.558;9.704;2022-10-31T01:35:58;13.20;99.90
27162;DHT22;54464;50.558;9.704;2022-10-31T01:38:24;13.20;99.90
27162;DHT22;54464;50.558;9.704;2022-10-31T01:40:50;13.10;99.90
27162;DHT22;54464;50.558;9.704;2022-10-31T01:43:16;13.10;99.90
27162;DHT22;54464;50.558;9.704;2022-10-31T01:45:44;13.00;99.90
27162;DHT22;54464;50.558;9.704;2022-10-31T01:48:17;13.00;99.90
27162;DHT22;54464;50.558;9.704;2022-10-31T01:50:48;13.00;99.90
27162;DHT22;54464;50.558;9.704;2022-10-31T01:53:15;13.10;99.90
27162;DHT22;54464;50.558;9.704;2022-10-31T01:55:44;13.00;99.90
27162;DHT22;54464;50.558;9.704;2022-10-31T01:58:19;13.00;99.90
27162;DHT22;54464;50.558;9.704;2022-10-31T02:00:47;13.00;99.90
27162;DHT22;54464;50.558;9.704;2022-10-31T02:03:14;12.90;99.90
27162;DHT22;54464;50.558;9.704;2022-10-31T02:05:41;12.90;99.90
27162;DHT22;54464;50.558;9.704;2022-10-31T02:08:18;12.80;99.90
27162;DHT22;54464;50.558;9.704;2022-10-31T02:10:46;12.80;99.90
27162;DHT22;54464;50.558;9.704;2022-10-31T02:13:11;12.80;99.90
27162;DHT22;54464;50.558;9.704;2022-10-31T02:15:39;12.70;99.90
27162;DHT22;54464;50.558;9.704;2022-10-31T02:18:06;12.70;99.90
27162;DHT22;54464;50.558;9.704;2022-10-31T02:24:13;12.60;99.90
27162;DHT22;54464;50.558;9.704;2022-10-31T02:26:44;12.60;99.90
27162;DHT22;54464;50.558;9.704;2022-10-31T02:32:00;12.50;99.90
27162;DHT22;54464;50.558;9.704;2022-10-31T02:34:40;12.50;99.90
27162;DHT22;54464;50.558;9.704;2022-10-31T02:37:16;12.50;99.90
27162;DHT22;54464;50.558;9.704;2022-10-31T02:39:56;12.50;99.90
27162;DHT22;54464;50.558;9.704;2022-10-31T02:42:50;12.50;99.90
27162;DHT22;54464;50.558;9.704;2022-10-31T02:45:50;12.50;99.90
27162;DHT22;54464;50.558;9.704;2022-10-31T02:48:23;12.40;99.90
27162;DHT22;54464;50.558;9.704;2022-10-31T02:50:54;12.40;99.90
27162;DHT22;54464;50.558;9.704;2022-10-31T02:53:21;12.30;99.90
27162;DHT22;54464;50.558;9.704;2022-10-31T02:55:58;12.20;99.90
27162;DHT22;54464;50.558;9.704;2022-10-31T02:58:26;12.20;99.90
27162;DHT22;54464;50.558;9.704;2022-10-31T03:09:27;12.20;99.90
27162;DHT22;54464;50.558;9.704;2022-10-31T03:17:31;12.00;99.90
27162;DHT22;54464;50.558;9.704;2022-10-31T03:20:00;12.00;99.90
27162;DHT22;54464;50.558;9.704;2022-10-31T03:22:30;11.90;99.90
27162;DHT22;54464;50.558;9.704;2022-10-31T03:24:57;11.90;99.90
27162;DHT22;54464;50.558;9.704;2022-10-31T03:27:25;11.90;99.90
27162;DHT22;54464;50.558;9.704;2022-10-31T03:29:55;11.90;99.90
27162;DHT22;54464;50.558;9.704;2022-10-31T03:32:44;11.90;99.90
27162;DHT22;54464;50.558;9.704;2022-10-31T03:35:14;11.90;99.90
27162;DHT22;54464;50.558;9.704;2022-10-31T03:37:41;11.90;99.90
27162;DHT22;54464;50.558;9.704;2022-10-31T03:40:09;12.00;99.90
27162;DHT22;54464;50.558;9.704;2022-10-31T03:42:40;12.00;99.90
27162;DHT22;54464;50.558;9.704;2022-10-31T03:45:15;12.00;99.90
27162;DHT22;54464;50.558;9.704;2022-10-31T03:47:43;12.00;99.90
27162;DHT22;54464;50.558;9.704;2022-10-31T03:50:12;12.00;99.90
27162;DHT22;54464;50.558;9.704;2022-10-31T03:59:09;11.90;99.90
27162;DHT22;54464;50.558;9.704;2022-10-31T04:01:41;11.80;99.90
27162;DHT22;54464;50.558;9.704;2022-10-31T04:04:09;11.80;99.90
27162;DHT22;54464;50.558;9.704;2022-10-31T04:06:36;11.80;99.90
27162;DHT22;54464;50.558;9.704;2022-10-31T04:09:05;11.70;99.90
27162;DHT22;54464;50.558;9.704;2022-10-31T04:11:40;11.70;99.90
27162;DHT22;54464;50.558;9.704;2022-10-31T04:14:08;11.70;99.90
27162;DHT22;54464;50.558;9.704;2022-10-31T04:16:34;11.60;99.90
27162;DHT22;54464;50.558;9.704;2022-10-31T04:19:00;11.60;99.90
27162;DHT22;54464;50.558;9.704;2022-10-31T04:21:29;11.50;99.90
27162;DHT22;54464;50.558;9.704;2022-10-31T04:23:55;11.50;99.90
27162;DHT22;54464;50.558;9.704;2022-10-31T04:26:21;11.50;99.90
27162;DHT22;54464;50.558;9.704;2022-10-31T04:28:46;11.50;99.90
27162;DHT22;54464;50.558;9.704;2022-10-31T04:31:12;11.50;99.90
27162;DHT22;54464;50.558;9.704;2022-10-31T04:33:38;11.50;99.90
27162;DHT22;54464;50.558;9.704;2022-10-31T04:36:04;11.50;99.90
27162;DHT22;54464;50.558;9.704;2022-10-31T04:38:30;11.50;99.90
27162;DHT22;54464;50.558;9.704;2022-10-31T04:40:56;11.60;99.90
27162;DHT22;54464;50.558;9.704;2022-10-31T04:43:21;11.50;99.90
27162;DHT22;54464;50.558;9.704;2022-10-31T04:45:47;11.50;99.90
27162;DHT22;54464;50.558;9.704;2022-10-31T04:48:13;11.50;99.90
27162;DHT22;54464;50.558;9.704;2022-10-31T04:50:39;11.40;99.90
27162;DHT22;54464;50.558;9.704;2022-10-31T04:53:05;11.40;99.90
27162;DHT22;54464;50.558;9.704;2022-10-31T04:55:31;11.40;99.90
27162;DHT22;54464;50.558;9.704;2022-10-31T04:57:56;11.30;99.90
27162;DHT22;54464;50.558;9.704;2022-10-31T05:00:23;11.30;99.90
27162;DHT22;54464;50.558;9.704;2022-10-31T05:02:53;11.20;99.90
27162;DHT22;54464;50.558;9.704;2022-10-31T05:05:23;11.20;99.90
27162;DHT22;54464;50.558;9.704;2022-10-31T05:07:50;11.20;99.90
27162;DHT22;54464;50.558;9.704;2022-10-31T05:10:18;11.10;99.90
27162;DHT22;54464;50.558;9.704;2022-10-31T05:12:58;11.10;99.90
27162;DHT22;54464;50.558;9.704;2022-10-31T05:15:26;11.10;99.90
27162;DHT22;54464;50.558;9.704;2022-10-31T05:17:53;11.10;99.90
27162;DHT22;54464;50.558;9.704;2022-10-31T05:20:22;11.10;99.90
27162;DHT22;54464;50.558;9.704;2022-10-31T05:22:50;11.10;99.90
27162;DHT22;54464;50.558;9.704;2022-10-31T05:25:17;11.00;99.90
27162;DHT22;54464;50.558;9.704;2022-10-31T05:27:47;11.00;99.90
27162;DHT22;54464;50.558;9.704;2022-10-31T05:30:15;11.00;99.90
27162;DHT22;54464;50.558;9.704;2022-10-31T05:32:43;10.90;99.90
27162;DHT22;54464;50.558;9.704;2022-10-31T05:35:12;10.90;99.90
27162;DHT22;54464;50.558;9.704;2022-10-31T05:37:38;10.90;99.90
27162;DHT22;54464;50.558;9.704;2022-10-31T05:40:06;10.90;99.90
27162;DHT22;54464;50.558;9.704;2022-10-31T05:42:32;10.90;99.90
27162;DHT22;54464;50.558;9.704;2022-10-31T05:44:58;10.90;99.90
27162;DHT22;54464;50.558;9.704;2022-10-31T05:47:24;10.90;99.90
27162;DHT22;54464;50.558;9.704;2022-10-31T05:49:49;10.80;99.90
27162;DHT22;54464;50.558;9.704;2022-10-31T05:52:15;10.80;99.90
27162;DHT22;54464;50.558;9.704;2022-10-31T05:54:41;10.80;99.90
27162;DHT22;54464;50.558;9.704;2022-10-31T05:57:07;10.90;99.90
27162;DHT22;54464;50.558;9.704;2022-10-31T05:59:32;10.90;99.90
27162;DHT22;54464;50.558;9.704;2022-10-31T06:01:58;10.90;99.90
27162;DHT22;54464;50.558;9.704;2022-10-31T06:04:24;10.90;99.90
27162;DHT22;54464;50.558;9.704;2022-10-31T06:06:49;10.90;99.90
27162;DHT22;54464;50.558;9.704;2022-10-31T06:09:15;10.90;99.90
27162;DHT22;54464;50.558;9.704;2022-10-31T06:11:41;10.90;99.90
27162;DHT22;54464;50.558;9.704;2022-10-31T06:14:07;10.90;99.90
27162;DHT22;54464;50.558;9.704;2022-10-31T06:16:32;10.90;99.90
27162;DHT22;54464;50.558;9.704;2022-10-31T06:18:58;10.90;99.90
27162;DHT22;54464;50.558;9.704;2022-10-31T06:21:24;10.90;99.90
27162;DHT22;54464;50.558;9.704;2022-10-31T06:23:50;10.80;99.90
27162;DHT22;54464;50.558;9.704;2022-10-31T06:26:16;10.80;99.90
27162;DHT22;54464;50.558;9.704;2022-10-31T06:28:42;10.80;99.90
27162;DHT22;54464;50.558;9.704;2022-10-31T06:31:07;10.70;99.90
27162;DHT22;54464;50.558;9.704;2022-10-31T06:33:33;10.70;99.90
27162;DHT22;54464;50.558;9.704;2022-10-31T06:36:00;10.70;99.90
27162;DHT22;54464;50.558;9.704;2022-10-31T06:38:26;10.70;99.90
27162;DHT22;54464;50.558;9.704;2022-10-31T06:40:52;10.70;99.90
27162;DHT22;54464;50.558;9.704;2022-10-31T06:43:18;10.70;99.90
27162;DHT22;54464;50.558;9.704;2022-10-31T06:45:44;10.80;99.90
27162;DHT22;54464;50.558;9.704;2022-10-31T06:48:10;10.70;99.90
27162;DHT22;54464;50.558;9.704;2022-10-31T06:50:36;10.70;99.90
27162;DHT22;54464;50.558;9.704;2022-10-31T06:53:01;10.70;99.90
27162;DHT22;54464;50.558;9.704;2022-10-31T06:55:27;10.70;99.90
27162;DHT22;54464;50.558;9.704;2022-10-31T06:58:00;10.70;99.90
27162;DHT22;54464;50.558;9.704;2022-10-31T07:00:27;10.70;99.90
27162;DHT22;54464;50.558;9.704;2022-10-31T07:02:55;10.70;99.90
27162;DHT22;54464;50.558;9.704;2022-10-31T07:05:21;10.60;99.90
27162;DHT22;54464;50.558;9.704;2022-10-31T07:07:47;10.60;99.90
27162;DHT22;54464;50.558;9.704;2022-10-31T07:10:16;10.60;99.90
27162;DHT22;54464;50.558;9.704;2022-10-31T07:12:42;10.50;99.90
27162;DHT22;54464;50.558;9.704;2022-10-31T07:15:08;10.60;99.90
27162;DHT22;54464;50.558;9.704;2022-10-31T07:17:34;10.60;99.90
27162;DHT22;54464;50.558;9.704;2022-10-31T07:19:59;10.60;99.90
27162;DHT22;54464;50.558;9.704;2022-10-31T07:22:25;10.60;99.90
27162;DHT22;54464;50.558;9.704;2022-10-31T07:24:57;10.70;99.90
27162;DHT22;54464;50.558;9.704;2022-10-31T07:27:22;10.70;99.90
27162;DHT22;54464;50.558;9.704;2022-10-31T07:29:48;10.70;99.90
27162;DHT22;54464;50.558;9.704;2022-10-31T07:32:13;10.80;99.90
27162;DHT22;54464;50.558;9.704;2022-10-31T07:34:39;10.80;99.90
27162;DHT22;54464;50.558;9.704;2022-10-31T07:37:05;10.80;99.90
27162;DHT22;54464;50.558;9.704;2022-10-31T07:39:30;10.80;99.90
27162;DHT22;54464;50.558;9.704;2022-10-31T07:41:58;10.90;99.90
27162;DHT22;54464;50.558;9.704;2022-10-31T07:44:24;11.10;99.90
27162;DHT22;54464;50.558;9.704;2022-10-31T07:46:49;11.20;99.90
27162;DHT22;54464;50.558;9.704;2022-10-31T07:49:15;11.30;99.90
27162;DHT22;54464;50.558;9.704;2022-10-31T07:51:41;11.30;99.90
27162;DHT22;54464;50.558;9.704;2022-10-31T07:54:06;11.30;99.90
27162;DHT22;54464;50.558;9.704;2022-10-31T07:56:32;11.30;99.90
27162;DHT22;54464;50.558;9.704;2022-10-31T07:58:58;11.40;99.90
27162;DHT22;54464;50.558;9.704;2022-10-31T08:01:23;11.40;99.90
27162;DHT22;54464;50.558;9.704;2022-10-31T08:03:49;11.50;99.90
27162;DHT22;54464;50.558;9.704;2022-10-31T08:06:15;11.50;99.90
27162;DHT22;54464;50.558;9.704;2022-10-31T08:08:43;11.50;99.90
27162;DHT22;54464;50.558;9.704;2022-10-31T08:11:08;11.60;99.90
27162;DHT22;54464;50.558;9.704;2022-10-31T08:13:34;11.60;99.90
27162;DHT22;54464;50.558;9.704;2022-10-31T08:16:00;11.70;99.90
27162;DHT22;54464;50.558;9.704;2022-10-31T08:18:30;11.90;99.90
27162;DHT22;54464;50.558;9.704;2022-10-31T08:20:55;12.10;99.90
27162;DHT22;54464;50.558;9.704;2022-10-31T08:23:21;12.30;99.90
27162;DHT22;54464;50.558;9.704;2022-10-31T08:25:47;12.50;99.90
27162;DHT22;54464;50.558;9.704;2022-10-31T08:28:14;12.70;99.90
27162;DHT22;54464;50.558;9.704;2022-10-31T08:30:40;12.80;99.90
27162;DHT22;54464;50.558;9.704;2022-10-31T08:35:33;13.10;99.90
27162;DHT22;54464;50.558;9.704;2022-10-31T08:37:59;13.00;99.90
27162;DHT22;54464;50.558;9.704;2022-10-31T08:40:26;12.90;99.90
27162;DHT22;54464;50.558;9.704;2022-10-31T08:43:14;13.10;99.90
27162;DHT22;54464;50.558;9.704;2022-10-31T08:45:41;13.20;99.90
27162;DHT22;54464;50.558;9.704;2022-10-31T08:48:11;13.20;99.90
27162;DHT22;54464;50.558;9.704;2022-10-31T08:50:37;13.40;99.90
27162;DHT22;54464;50.558;9.704;2022-10-31T08:53:14;13.40;99.90
27162;DHT22;54464;50.558;9.704;2022-10-31T08:55:41;13.50;99.90
27162;DHT22;54464;50.558;9.704;2022-10-31T08:58:11;13.70;99.90
27162;DHT22;54464;50.558;9.704;2022-10-31T09:00:37;14.00;99.90
27162;DHT22;54464;50.558;9.704;2022-10-31T09:03:11;14.10;99.90
27162;DHT22;54464;50.558;9.704;2022-10-31T09:05:37;14.20;99.90
27162;DHT22;54464;50.558;9.704;2022-10-31T09:08:05;14.40;99.90
27162;DHT22;54464;50.558;9.704;2022-10-31T09:10:32;14.50;99.90
27162;DHT22;54464;50.558;9.704;2022-10-31T09:13:03;14.50;99.90
27162;DHT22;54464;50.558;9.704;2022-10-31T09:15:32;14.50;99.90
27162;DHT22;54464;50.558;9.704;2022-10-31T09:17:58;14.50;99.90
27162;DHT22;54464;50.558;9.704;2022-10-31T09:20:24;14.60;99.90
27162;DHT22;54464;50.558;9.704;2022-10-31T09:22:56;14.60;99.90
27162;DHT22;54464;50.558;9.704;2022-10-31T09:25:22;14.50;99.90
27162;DHT22;54464;50.558;9.704;2022-10-31T09:27:47;14.40;99.90
27162;DHT22;54464;50.558;9.704;2022-10-31T09:30:14;14.30;99.90
27162;DHT22;54464;50.558;9.704;2022-10-31T09:32:40;14.20;99.90
27162;DHT22;54464;50.558;9.704;2022-10-31T09:35:06;14.00;99.90
27162;DHT22;54464;50.558;9.704;2022-10-31T09:37:31;13.80;99.90
27162;DHT22;54464;50.558;9.704;2022-10-31T09:39:57;13.70;99.90
27162;DHT22;54464;50.558;9.704;2022-10-31T09:42:57;13.60;99.90
27162;DHT22;54464;50.558;9.704;2022-10-31T09:45:30;13.60;99.90
27162;DHT22;54464;50.558;9.704;2022-10-31T09:50:45;13.60;99.90
27162;DHT22;54464;50.558;9.704;2022-10-31T09:53:34;13.60;99.90
27162;DHT22;54464;50.558;9.704;2022-10-31T09:56:09;13.50;99.90
27162;DHT22;54464;50.558;9.704;2022-10-31T09:58:40;13.60;99.90
27162;DHT22;54464;50.558;9.704;2022-10-31T10:01:27;13.60;99.90
27162;DHT22;54464;50.558;9.704;2022-10-31T10:03:58;13.70;99.90
27162;DHT22;54464;50.558;9.704;2022-10-31T10:06:29;13.70;99.90
27162;DHT22;54464;50.558;9.704;2022-10-31T10:08:55;13.80;99.90
27162;DHT22;54464;50.558;9.704;2022-10-31T10:17:13;13.80;99.90
27162;DHT22;54464;50.558;9.704;2022-10-31T10:20:05;13.90;99.90
27162;DHT22;54464;50.558;9.704;2022-10-31T10:30:20;14.40;99.90
27162;DHT22;54464;50.558;9.704;2022-10-31T10:35:49;15.40;99.90
27162;DHT22;54464;50.558;9.704;2022-10-31T10:40:46;16.30;99.90
27162;DHT22;54464;50.558;9.704;2022-10-31T10:43:26;16.60;99.90
27162;DHT22;54464;50.558;9.704;2022-10-31T10:49:16;16.80;99.90
27162;DHT22;54464;50.558;9.704;2022-10-31T10:51:54;17.40;99.90
27162;DHT22;54464;50.558;9.704;2022-10-31T10:54:45;17.90;99.90
27162;DHT22;54464;50.558;9.704;2022-10-31T10:59:59;18.40;99.90
27162;DHT22;54464;50.558;9.704;2022-10-31T11:02:27;18.30;99.90
27162;DHT22;54464;50.558;9.704;2022-10-31T11:04:57;18.40;99.90
27162;DHT22;54464;50.558;9.704;2022-10-31T11:07:24;18.50;99.90
27162;DHT22;54464;50.558;9.704;2022-10-31T11:09:49;18.60;99.90
27162;DHT22;54464;50.558;9.704;2022-10-31T11:12:58;19.20;99.90
27162;DHT22;54464;50.558;9.704;2022-10-31T11:15:25;19.70;99.90
27162;DHT22;54464;50.558;9.704;2022-10-31T11:17:54;19.70;99.90
27162;DHT22;54464;50.558;9.704;2022-10-31T11:22:47;19.10;99.90
27162;DHT22;54464;50.558;9.704;2022-10-31T11:25:20;18.70;99.90
27162;DHT22;54464;50.558;9.704;2022-10-31T11:27:47;18.30;99.90
27162;DHT22;54464;50.558;9.704;2022-10-31T11:30:14;17.80;99.90
27162;DHT22;54464;50.558;9.704;2022-10-31T11:32:50;17.50;99.90
27162;DHT22;54464;50.558;9.704;2022-10-31T11:35:20;17.30;99.90
27162;DHT22;54464;50.558;9.704;2022-10-31T11:37:49;17.10;99.90
27162;DHT22;54464;50.558;9.704;2022-10-31T11:42:42;16.90;99.90
27162;DHT22;54464;50.558;9.704;2022-10-31T11:45:36;16.90;99.90
27162;DHT22;54464;50.558;9.704;2022-10-31T11:48:12;16.90;99.90
27162;DHT22;54464;50.558;9.704;2022-10-31T11:50:40;16.80;99.90
27162;DHT22;54464;50.558;9.704;2022-10-31T11:53:23;16.70;99.90
27162;DHT22;54464;50.558;9.704;2022-10-31T11:56:14;16.60;99.90
27162;DHT22;54464;50.558;9.704;2022-10-31T11:58:41;16.60;99.90
27162;DHT22;54464;50.558;9.704;2022-10-31T12:01:25;16.60;99.90
27162;DHT22;54464;50.558;9.704;2022-10-31T12:06:24;16.60;99.90
27162;DHT22;54464;50.558;9.704;2022-10-31T12:08:52;16.50;99.90
27162;DHT22;54464;50.558;9.704;2022-10-31T12:14:32;16.50;99.90
27162;DHT22;54464;50.558;9.704;2022-10-31T12:17:19;16.50;99.90
27162;DHT22;54464;50.558;9.704;2022-10-31T12:25:50;16.60;99.90
27162;DHT22;54464;50.558;9.704;2022-10-31T12:28:44;16.60;99.90
27162;DHT22;54464;50.558;9.704;2022-10-31T12:34:37;16.60;99.90
27162;DHT22;54464;50.558;9.704;2022-10-31T12:37:27;16.60;99.90
27162;DHT22;54464;50.558;9.704;2022-10-31T12:48:13;16.60;99.90
27162;DHT22;54464;50.558;9.704;2022-10-31T12:50:52;16.70;99.90
27162;DHT22;54464;50.558;9.704;2022-10-31T12:59:36;16.70;99.90
27162;DHT22;54464;50.558;9.704;2022-10-31T13:02:28;16.70;99.90
27162;DHT22;54464;50.558;9.704;2022-10-31T13:13:02;17.00;99.90
27162;DHT22;54464;50.558;9.704;2022-10-31T13:15:34;17.10;99.90
27162;DHT22;54464;50.558;9.704;2022-10-31T13:18:06;17.10;99.90
27162;DHT22;54464;50.558;9.704;2022-10-31T13:20:42;17.10;99.90
27162;DHT22;54464;50.558;9.704;2022-10-31T13:23:34;17.10;99.90
27162;DHT22;54464;50.558;9.704;2022-10-31T13:26:12;17.10;99.90
27162;DHT22;54464;50.558;9.704;2022-10-31T13:29:05;17.10;99.90
27162;DHT22;54464;50.558;9.704;2022-10-31T13:31:34;17.10;99.90
27162;DHT22;54464;50.558;9.704;2022-10-31T13:34:12;17.10;99.90
27162;DHT22;54464;50.558;9.704;2022-10-31T13:44:27;17.10;99.90
27162;DHT22;54464;50.558;9.704;2022-10-31T13:46:55;17.10;99.90
27162;DHT22;54464;50.558;9.704;2022-10-31T13:51:50;17.20;99.90
27162;DHT22;54464;50.558;9.704;2022-10-31T13:54:32;17.30;99.90
27162;DHT22;54464;50.558;9.704;2022-10-31T13:56:59;17.20;99.90
27162;DHT22;54464;50.558;9.704;2022-10-31T13:59:29;17.20;99.90
27162;DHT22;54464;50.558;9.704;2022-10-31T14:02:02;17.10;99.90
27162;DHT22;54464;50.558;9.704;2022-10-31T14:04:54;17.10;99.90
27162;DHT22;54464;50.558;9.704;2022-10-31T14:07:21;17.00;99.90
27162;DHT22;54464;50.558;9.704;2022-10-31T14:12:41;16.90;99.90
27162;DHT22;54464;50.558;9.704;2022-10-31T14:15:22;16.80;99.90
27162;DHT22;54464;50.558;9.704;2022-10-31T14:18:01;16.70;99.90
27162;DHT22;54464;50.558;9.704;2022-10-31T14:20:44;16.70;99.90
27162;DHT22;54464;50.558;9.704;2022-10-31T14:23:37;16.70;99.90
27162;DHT22;54464;50.558;9.704;2022-10-31T14:28:53;16.80;99.90
27162;DHT22;54464;50.558;9.704;2022-10-31T14:31:42;16.70;99.90
27162;DHT22;54464;50.558;9.704;2022-10-31T14:42:05;16.50;99.90
27162;DHT22;54464;50.558;9.704;2022-10-31T14:44:41;16.50;99.90
27162;DHT22;54464;50.558;9.704;2022-10-31T14:53:02;16.50;99.90
27162;DHT22;54464;50.558;9.704;2022-10-31T14:55:29;16.50;99.90
27162;DHT22;54464;50.558;9.704;2022-10-31T14:57:59;16.40;99.90
27162;DHT22;54464;50.558;9.704;2022-10-31T15:00:27;16.40;99.90
27162;DHT22;54464;50.558;9.704;2022-10-31T15:05:23;16.30;99.90
27162;DHT22;54464;50.558;9.704;2022-10-31T15:07:54;16.30;99.90
27162;DHT22;54464;50.558;9.704;2022-10-31T15:12:46;16.20;99.90
27162;DHT22;54464;50.558;9.704;2022-10-31T15:15:14;16.20;99.90
27162;DHT22;54464;50.558;9.704;2022-10-31T15:17:44;16.20;99.90
27162;DHT22;54464;50.558;9.704;2022-10-31T15:20:12;16.20;99.90
27162;DHT22;54464;50.558;9.704;2022-10-31T15:22:42;16.20;99.90
27162;DHT22;54464;50.558;9.704;2022-10-31T15:25:19;16.10;99.90
27162;DHT22;54464;50.558;9.704;2022-10-31T15:27:49;16.10;99.90
27162;DHT22;54464;50.558;9.704;2022-10-31T15:30:22;16.00;99.90
27162;DHT22;54464;50.558;9.704;2022-10-31T15:32:48;15.90;99.90
27162;DHT22;54464;50.558;9.704;2022-10-31T15:35:26;15.90;99.90
27162;DHT22;54464;50.558;9.704;2022-10-31T15:37:53;15.80;99.90
27162;DHT22;54464;50.558;9.704;2022-10-31T15:40:22;15.80;99.90
27162;DHT22;54464;50.558;9.704;2022-10-31T15:43:00;15.70;99.90
27162;DHT22;54464;50.558;9.704;2022-10-31T15:45:28;15.70;99.90
27162;DHT22;54464;50.558;9.704;2022-10-31T15:48:32;15.70;99.90
27162;DHT22;54464;50.558;9.704;2022-10-31T15:50:59;15.80;99.90
27162;DHT22;54464;50.558;9.704;2022-10-31T15:56:07;15.80;99.90
27162;DHT22;54464;50.558;9.704;2022-10-31T15:58:42;15.70;99.90
27162;DHT22;54464;50.558;9.704;2022-10-31T16:01:35;15.70;99.90
27162;DHT22;54464;50.558;9.704;2022-10-31T16:06:38;15.60;99.90
27162;DHT22;54464;50.558;9.704;2022-10-31T16:09:21;15.60;99.90
27162;DHT22;54464;50.558;9.704;2022-10-31T16:11:47;15.60;99.90
27162;DHT22;54464;50.558;9.704;2022-10-31T16:14:18;15.70;99.90
27162;DHT22;54464;50.558;9.704;2022-10-31T16:16:50;15.70;99.90
27162;DHT22;54464;50.558;9.704;2022-10-31T16:19:27;15.70;99.90
27162;DHT22;54464;50.558;9.704;2022-10-31T16:22:01;15.60;99.90
27162;DHT22;54464;50.558;9.704;2022-10-31T16:24:31;15.50;99.90
27162;DHT22;54464;50.558;9.704;2022-10-31T16:27:23;15.50;99.90
27162;DHT22;54464;50.558;9.704;2022-10-31T16:29:51;15.50;99.90
27162;DHT22;54464;50.558;9.704;2022-10-31T16:35:00;15.40;99.90
27162;DHT22;54464;50.558;9.704;2022-10-31T16:37:26;15.30;99.90
27162;DHT22;54464;50.558;9.704;2022-10-31T16:39:52;15.30;99.90
27162;DHT22;54464;50.558;9.704;2022-10-31T16:42:18;15.20;99.90
27162;DHT22;54464;50.558;9.704;2022-10-31T16:44:44;15.20;99.90
27162;DHT22;54464;50.558;9.704;2022-10-31T16:47:17;15.10;99.90
27162;DHT22;54464;50.558;9.704;2022-10-31T16:49:44;15.10;99.90
27162;DHT22;54464;50.558;9.704;2022-10-31T16:52:17;15.10;99.90
27162;DHT22;54464;50.558;9.704;2022-10-31T16:54:43;15.00;99.90
27162;DHT22;54464;50.558;9.704;2022-10-31T16:57:14;15.00;99.90
27162;DHT22;54464;50.558;9.704;2022-10-31T16:59:41;15.00;99.90
27162;DHT22;54464;50.558;9.704;2022-10-31T17:02:15;15.00;99.90
27162;DHT22;54464;50.558;9.704;2022-10-31T17:04:42;15.00;99.90
27162;DHT22;54464;50.558;9.704;2022-10-31T17:07:07;15.00;99.90
27162;DHT22;54464;50.558;9.704;2022-10-31T17:09:33;14.90;99.90
27162;DHT22;54464;50.558;9.704;2022-10-31T17:11:59;14.90;99.90
27162;DHT22;54464;50.558;9.704;2022-10-31T17:14:28;14.80;99.90
27162;DHT22;54464;50.558;9.704;2022-10-31T17:16:53;14.80;99.90
27162;DHT22;54464;50.558;9.704;2022-10-31T17:19:19;14.70;99.90
27162;DHT22;54464;50.558;9.704;2022-10-31T17:21:44;14.70;99.90
27162;DHT22;54464;50.558;9.704;2022-10-31T17:24:14;14.70;99.90
27162;DHT22;54464;50.558;9.704;2022-10-31T17:26:40;14.70;99.90
27162;DHT22;54464;50.558;9.704;2022-10-31T17:29:06;14.70;99.90
27162;DHT22;54464;50.558;9.704;2022-10-31T17:31:33;14.70;99.90
27162;DHT22;54464;50.558;9.704;2022-10-31T17:34:01;14.60;99.90
27162;DHT22;54464;50.558;9.704;2022-10-31T17:36:30;14.60;99.90
27162;DHT22;54464;50.558;9.704;2022-10-31T17:38:56;14.50;99.90
27162;DHT22;54464;50.558;9.704;2022-10-31T17:41:21;14.50;99.90
27162;DHT22;54464;50.558;9.704;2022-10-31T17:43:47;14.50;99.90
27162;DHT22;54464;50.558;9.704;2022-10-31T17:46:13;14.50;99.90
27162;DHT22;54464;50.558;9.704;2022-10-31T17:48:39;14.40;99.90
27162;DHT22;54464;50.558;9.704;2022-10-31T17:51:07;14.30;99.90
27162;DHT22;54464;50.558;9.704;2022-10-31T17:53:33;14.30;99.90
27162;DHT22;54464;50.558;9.704;2022-10-31T17:56:04;14.30;99.90
27162;DHT22;54464;50.558;9.704;2022-10-31T17:58:30;14.20;99.90
27162;DHT22;54464;50.558;9.704;2022-10-31T18:00:57;14.20;99.90
27162;DHT22;54464;50.558;9.704;2022-10-31T18:03:23;14.20;99.90
27162;DHT22;54464;50.558;9.704;2022-10-31T18:05:56;14.10;99.90
27162;DHT22;54464;50.558;9.704;2022-10-31T18:08:30;14.20;99.90